createdAt,value
2022-11-24T04:01:34.179Z,5.93
2022-11-24T04:04:01.417Z,9.77
2022-11-24T04:06:28.713Z,12.13
2022-11-24T04:08:55.875Z,6.60
2022-11-24T04:11:41.716Z,10.07
2022-11-24T04:14:13.336Z,9.07
2022-11-24T04:16:41.616Z,11.67
2022-11-24T04:19:08.769Z,9.20
2022-11-24T04:21:36.086Z,11.17
2022-11-24T04:24:03.215Z,17.03
2022-11-24T04:26:30.390Z,18.17
2022-11-24T04:28:57.507Z,12.63
2022-11-24T04:31:24.699Z,13.83
2022-11-24T04:33:51.876Z,10.43
2022-11-24T04:36:19.008Z,10.63
2022-11-24T04:39:24.246Z,14.80
2022-11-24T04:41:33.269Z,14.90
2022-11-24T04:44:00.410Z,13.87
2022-11-24T04:46:27.640Z,12.33
2022-11-24T04:48:54.860Z,14.73
2022-11-24T04:51:22.058Z,12.10
2022-11-24T04:53:49.561Z,16.13
2022-11-24T04:56:16.791Z,10.40
2022-11-24T04:58:43.951Z,10.77
2022-11-24T05:01:11.100Z,10.70
2022-11-24T05:03:38.310Z,12.50
2022-11-24T05:06:06.306Z,18.07
2022-11-24T05:08:33.696Z,8.67
2022-11-24T05:11:05.361Z,13.70
2022-11-24T05:13:32.913Z,12.87
2022-11-24T05:16:01.653Z,13.13
2022-11-24T05:18:28.986Z,12.27
2022-11-24T05:20:57.381Z,15.73
2022-11-24T05:23:24.913Z,16.83
2022-11-24T05:25:52.415Z,11.63
2022-11-24T05:28:19.781Z,14.53
2022-11-24T05:30:46.929Z,13.70
2022-11-24T05:33:18.983Z,16.70
2022-11-24T05:35:47.403Z,13.93
2022-11-24T05:38:15.509Z,10.37
2022-11-24T05:40:43.196Z,11.77
2022-11-24T05:43:11.911Z,12.53
2022-11-24T05:45:39.371Z,13.43
2022-11-24T05:48:08.500Z,19.73
2022-11-24T05:50:36.676Z,19.63
2022-11-24T05:53:09.022Z,15.70
2022-11-24T05:55:36.632Z,19.47
2022-11-24T05:58:07.267Z,24.80
2022-11-24T06:00:35.671Z,12.07
2022-11-24T06:03:03.576Z,16.97
2022-11-24T06:05:31.195Z,17.43
2022-11-24T06:08:00.616Z,24.57
2022-11-24T06:10:28.736Z,18.70
2022-11-24T06:12:55.928Z,10.47
2022-11-24T06:15:23.676Z,16.37
2022-11-24T06:17:55.685Z,14.60
2022-11-24T06:20:26.069Z,13.13
2022-11-24T06:23:00.057Z,12.20
2022-11-24T06:25:28.674Z,10.30
2022-11-24T06:27:56.093Z,22.63
2022-11-24T06:30:23.397Z,22.33
2022-11-24T06:32:55.201Z,20.73
2022-11-24T06:35:22.358Z,18.93
2022-11-24T06:37:49.500Z,27.40
2022-11-24T06:40:16.928Z,14.67
2022-11-24T06:42:50.464Z,19.83
2022-11-24T06:45:17.626Z,15.80
2022-11-24T06:47:44.807Z,19.50
2022-11-24T06:50:12.021Z,9.80
2022-11-24T06:52:39.188Z,21.60
2022-11-24T06:55:07.004Z,16.07
2022-11-24T06:57:35.202Z,13.57
2022-11-24T07:00:04.748Z,16.53
2022-11-24T07:02:31.946Z,15.10
2022-11-24T07:04:59.172Z,13.90
2022-11-24T07:07:26.398Z,15.93
2022-11-24T07:09:53.535Z,15.77
2022-11-24T07:12:20.686Z,17.43
2022-11-24T07:14:47.825Z,14.90
2022-11-24T07:17:14.979Z,14.00
2022-11-24T07:19:42.091Z,26.60
2022-11-24T07:22:09.257Z,16.60
2022-11-24T07:24:36.716Z,17.67
2022-11-24T07:27:03.969Z,10.57
2022-11-24T07:29:31.159Z,13.60
2022-11-24T07:32:03.718Z,16.53
2022-11-24T07:34:32.947Z,17.00
2022-11-24T07:37:00.214Z,7.57
2022-11-24T07:39:27.462Z,10.53
2022-11-24T07:41:54.582Z,17.47
2022-11-24T07:44:21.695Z,12.83
2022-11-24T07:46:51.208Z,16.83
2022-11-24T07:49:19.430Z,16.93
2022-11-24T07:51:46.844Z,16.83
2022-11-24T07:54:14.075Z,56.17
2022-11-24T07:56:41.468Z,15.60
2022-11-24T07:59:08.618Z,9.83
2022-11-24T08:01:35.874Z,12.03
2022-11-24T08:04:03.145Z,5.70
2022-11-24T08:06:38.447Z,15.77
2022-11-24T08:09:09.124Z,15.43
2022-11-24T08:11:36.722Z,8.80
2022-11-24T08:14:03.941Z,13.00
2022-11-24T08:16:32.093Z,13.93
2022-11-24T08:18:59.341Z,13.90
2022-11-24T08:21:26.612Z,11.20
2022-11-24T08:23:57.560Z,12.93
2022-11-24T08:26:25.538Z,7.67
2022-11-24T08:28:56.002Z,5.73
2022-11-24T08:31:24.855Z,15.17
2022-11-24T08:33:52.100Z,13.30
2022-11-24T08:36:19.751Z,12.13
2022-11-24T08:38:48.916Z,9.83
2022-11-24T08:41:17.299Z,14.90
2022-11-24T08:43:44.802Z,13.60
2022-11-24T08:46:14.241Z,13.13
2022-11-24T08:48:41.670Z,7.97
2022-11-24T08:51:11.697Z,16.80
2022-11-24T08:53:39.213Z,17.17
2022-11-24T08:56:06.877Z,16.00
2022-11-24T08:58:34.478Z,13.90
2022-11-24T09:01:10.525Z,17.77
2022-11-24T09:03:42.203Z,14.23
2022-11-24T09:06:12.306Z,13.87
2022-11-24T09:08:39.874Z,17.70
2022-11-24T09:11:09.394Z,23.33
2022-11-24T09:13:37.914Z,17.87
2022-11-24T09:16:13.733Z,13.60
2022-11-24T09:18:41.289Z,11.87
2022-11-24T09:21:18.720Z,5.23
2022-11-24T09:23:51.021Z,15.30
2022-11-24T09:26:29.270Z,10.00
2022-11-24T09:28:57.589Z,12.67
2022-11-24T09:31:31.137Z,7.67
2022-11-24T09:33:59.414Z,13.70
2022-11-24T09:36:27.454Z,11.37
2022-11-24T09:38:55.303Z,13.10
2022-11-24T09:41:47.159Z,12.30
2022-11-24T09:44:35.093Z,12.77
2022-11-24T09:47:27.970Z,15.30
2022-11-24T09:50:02.068Z,19.97
2022-11-24T09:53:15.917Z,13.17
2022-11-24T09:55:56.135Z,15.60
2022-11-24T09:58:54.803Z,13.37
2022-11-24T10:01:36.829Z,15.43
2022-11-24T10:04:12.904Z,12.83
2022-11-24T10:07:07.159Z,14.07
2022-11-24T10:09:43.356Z,27.07
2022-11-24T10:12:27.613Z,21.37
2022-11-24T10:15:00.842Z,13.07
2022-11-24T10:17:40.073Z,11.80
2022-11-24T10:20:36.583Z,11.10
2022-11-24T10:23:47.214Z,6.50
2022-11-24T10:26:36.054Z,7.43
2022-11-24T10:29:16.328Z,8.33
2022-11-24T10:31:45.749Z,8.23
2022-11-24T10:34:21.179Z,10.97
2022-11-24T10:37:15.290Z,10.60
2022-11-24T10:40:00.046Z,12.03
2022-11-24T10:42:28.956Z,9.43
2022-11-24T10:45:16.567Z,5.93
2022-11-24T10:47:44.791Z,10.00
2022-11-24T10:50:36.560Z,8.93
2022-11-24T10:53:03.846Z,6.20
2022-11-24T10:55:56.021Z,5.83
2022-11-24T10:58:23.150Z,6.10
2022-11-24T11:00:50.365Z,3.33
2022-11-24T11:03:21.417Z,7.37
2022-11-24T11:05:52.497Z,6.20
2022-11-24T11:08:22.760Z,6.33
2022-11-24T11:11:11.701Z,4.97
2022-11-24T11:13:50.980Z,5.67
2022-11-24T11:16:29.914Z,3.90
2022-11-24T11:18:57.189Z,7.53
2022-11-24T11:21:38.917Z,6.07
2022-11-24T11:24:15.020Z,4.77
2022-11-24T11:26:42.750Z,4.53
2022-11-24T11:35:03.605Z,3.20
2022-11-24T11:37:33.754Z,4.67
2022-11-24T11:40:01.508Z,4.80
2022-11-24T11:45:26.643Z,7.30
2022-11-24T11:48:01.894Z,5.47
2022-11-24T11:51:14.985Z,5.53
2022-11-24T11:53:48.635Z,4.57
2022-11-24T11:56:24.358Z,4.57
2022-11-24T11:59:16.141Z,6.88
2022-11-24T12:02:02.116Z,5.03
2022-11-24T12:04:42.507Z,3.58
2022-11-24T12:07:15.590Z,6.10
2022-11-24T12:10:01.963Z,6.63
2022-11-24T12:12:53.393Z,8.27
2022-11-24T12:15:31.147Z,3.50
2022-11-24T12:18:56.359Z,6.97
2022-11-24T12:21:33.665Z,5.27
2022-11-24T12:24:22.157Z,3.70
2022-11-24T12:27:01.082Z,5.18
2022-11-24T12:29:58.607Z,9.98
2022-11-24T12:32:44.913Z,7.70
2022-11-24T12:35:30.659Z,3.50
2022-11-24T12:38:24.935Z,5.27
2022-11-24T12:41:42.069Z,7.80
2022-11-24T12:44:36.399Z,5.75
2022-11-24T12:47:12.259Z,7.00
2022-11-24T12:49:44.808Z,8.43
2022-11-24T12:52:24.746Z,6.30
2022-11-24T12:54:52.493Z,8.15
2022-11-24T12:57:37.203Z,3.97
2022-11-24T13:00:07.237Z,7.83
2022-11-24T13:02:53.480Z,8.10
2022-11-24T13:05:28.372Z,6.80
2022-11-24T13:08:01.564Z,4.57
2022-11-24T13:13:23.881Z,7.00
2022-11-24T13:18:59.365Z,5.38
2022-11-24T13:21:42.713Z,4.67
2022-11-24T13:24:19.968Z,6.53
2022-11-24T13:27:15.385Z,3.37
2022-11-24T13:29:47.396Z,8.00
2022-11-24T13:32:14.557Z,5.33
2022-11-24T13:34:49.756Z,5.03
2022-11-24T13:37:33.911Z,4.53
2022-11-24T13:40:03.551Z,5.37
2022-11-24T13:42:42.156Z,6.80
2022-11-24T13:45:40.928Z,8.27
2022-11-24T13:48:20.993Z,5.13
2022-11-24T13:50:52.140Z,6.57
2022-11-24T13:53:22.531Z,6.17
2022-11-24T13:55:59.779Z,5.90
2022-11-24T13:58:39.875Z,6.50
2022-11-24T14:01:12.915Z,5.63
2022-11-24T14:04:34.011Z,6.30
2022-11-24T14:07:08.268Z,4.77
2022-11-24T14:09:41.060Z,17.87
2022-11-24T14:12:20.338Z,4.75
2022-11-24T14:14:49.601Z,6.43
2022-11-24T14:17:16.816Z,4.53
2022-11-24T14:19:46.691Z,8.90
2022-11-24T14:22:18.969Z,9.53
2022-11-24T14:24:52.771Z,7.93
2022-11-24T14:27:30.382Z,8.63
2022-11-24T14:30:02.171Z,8.13
2022-11-24T14:32:29.693Z,10.17
2022-11-24T14:34:57.236Z,8.40
2022-11-24T14:37:24.530Z,5.33
2022-11-24T14:39:52.099Z,7.30
2022-11-24T14:42:24.994Z,8.07
2022-11-24T14:44:59.305Z,5.80
2022-11-24T14:47:31.680Z,5.07
2022-11-24T14:50:15.148Z,7.03
2022-11-24T14:53:02.615Z,4.00
2022-11-24T14:55:31.993Z,6.60
2022-11-24T14:57:59.939Z,6.57
2022-11-24T15:00:31.513Z,7.47
2022-11-24T15:03:01.513Z,6.97
2022-11-24T15:05:52.234Z,3.80
2022-11-24T15:08:19.723Z,8.20
2022-11-24T15:10:47.310Z,6.50
2022-11-24T15:13:21.559Z,8.67
2022-11-24T15:16:02.004Z,12.30
2022-11-24T15:18:47.952Z,24.70
2022-11-24T15:21:19.296Z,6.87
2022-11-24T15:24:14.005Z,10.17
2022-11-24T15:26:42.340Z,8.63
2022-11-24T15:29:11.057Z,7.67
2022-11-24T15:31:39.460Z,8.27
2022-11-24T15:34:07.061Z,7.30
2022-11-24T15:36:34.238Z,5.70
2022-11-24T15:39:01.385Z,8.87
2022-11-24T15:41:31.053Z,6.33
2022-11-24T15:43:59.380Z,5.50
2022-11-24T15:46:28.304Z,7.63
2022-11-24T15:48:55.820Z,6.37
2022-11-24T15:51:26.215Z,5.07
2022-11-24T15:54:00.361Z,10.70
2022-11-24T15:56:35.651Z,10.27
2022-11-24T15:59:03.650Z,9.13
2022-11-24T16:01:33.257Z,9.90
2022-11-24T16:04:01.624Z,7.20
2022-11-24T16:06:28.851Z,8.93
2022-11-24T16:08:57.649Z,7.67
2022-11-24T16:11:25.147Z,7.30
2022-11-24T16:13:54.040Z,6.83
2022-11-24T16:16:23.566Z,6.40
2022-11-24T16:18:50.853Z,7.13
2022-11-24T16:21:18.099Z,6.37
2022-11-24T16:23:45.715Z,9.43
2022-11-24T16:26:15.222Z,17.60
2022-11-24T16:28:42.860Z,9.00
2022-11-24T16:31:10.106Z,6.70
2022-11-24T16:33:40.635Z,4.83
2022-11-24T16:36:08.560Z,5.90
2022-11-24T16:38:35.791Z,6.13
2022-11-24T16:41:03.018Z,5.83
2022-11-24T16:43:30.487Z,9.00
2022-11-24T16:46:22.252Z,9.50
2022-11-24T16:48:52.702Z,6.03
2022-11-24T16:51:21.884Z,4.63
2022-11-24T16:53:56.115Z,7.47
2022-11-24T16:56:23.289Z,9.47
2022-11-24T16:58:50.479Z,8.87
2022-11-24T17:01:17.849Z,7.70
2022-11-24T17:03:45.163Z,10.27
2022-11-24T17:06:15.882Z,7.63
2022-11-24T17:08:44.483Z,10.67
2022-11-24T17:11:13.165Z,9.83
2022-11-24T17:13:40.899Z,9.83
2022-11-24T17:16:13.389Z,11.67
2022-11-24T17:18:41.195Z,12.63
2022-11-24T17:21:15.746Z,11.53
2022-11-24T17:23:43.169Z,5.10
2022-11-24T17:26:15.649Z,9.83
2022-11-24T17:28:43.748Z,8.67
2022-11-24T17:31:35.890Z,8.13
2022-11-24T17:34:05.114Z,8.93
2022-11-24T17:36:33.951Z,6.50
2022-11-24T17:39:04.381Z,11.37
2022-11-24T17:41:32.478Z,14.13
2022-11-24T17:43:59.838Z,13.83
2022-11-24T17:46:29.146Z,13.50
2022-11-24T17:48:56.981Z,17.17
2022-11-24T17:51:25.932Z,20.27
2022-11-24T17:53:54.527Z,23.37
2022-11-24T17:56:23.892Z,19.83
2022-11-24T17:58:55.637Z,25.73
2022-11-24T18:01:24.327Z,20.67
2022-11-24T18:03:53.744Z,25.80
2022-11-24T18:06:24.987Z,25.00
2022-11-24T18:08:53.176Z,26.37
2022-11-24T18:11:30.231Z,28.60
2022-11-24T18:14:01.688Z,34.67
2022-11-24T18:16:31.680Z,38.80
2022-11-24T18:19:10.157Z,38.23
2022-11-24T18:21:39.896Z,37.87
2022-11-24T18:24:08.525Z,40.53
2022-11-24T18:26:35.967Z,38.90
2022-11-24T18:29:03.429Z,39.10
2022-11-24T18:31:32.207Z,34.80
2022-11-24T18:33:59.733Z,34.20
2022-11-24T18:36:30.536Z,35.10
2022-11-24T18:39:01.347Z,37.03
2022-11-24T18:41:28.630Z,35.50
2022-11-24T18:43:55.779Z,38.13
2022-11-24T18:46:23.046Z,40.33
2022-11-24T18:48:51.998Z,46.60
2022-11-24T18:51:19.186Z,26.77
2022-11-24T18:53:50.709Z,31.70
2022-11-24T18:56:17.990Z,29.70
2022-11-24T18:58:45.443Z,20.80
2022-11-24T19:01:15.581Z,19.50
2022-11-24T19:03:49.351Z,21.17
2022-11-24T19:06:37.443Z,19.97
2022-11-24T19:09:11.752Z,21.67
2022-11-24T19:11:41.404Z,21.30
2022-11-24T19:14:11.854Z,18.30
2022-11-24T19:16:39.472Z,20.03
2022-11-24T19:19:07.234Z,17.13
2022-11-24T19:21:39.206Z,18.63
2022-11-24T19:24:09.984Z,18.00
2022-11-24T19:26:38.585Z,20.60
2022-11-24T19:29:07.293Z,19.20
2022-11-24T19:31:38.302Z,17.57
2022-11-24T19:34:07.824Z,20.23
2022-11-24T19:36:35.429Z,17.53
2022-11-24T19:39:04.728Z,23.03
2022-11-24T19:41:32.928Z,23.40
2022-11-24T19:44:00.393Z,26.17
2022-11-24T19:46:29.503Z,25.13
2022-11-24T19:48:59.663Z,34.47
2022-11-24T19:51:32.549Z,25.70
2022-11-24T19:54:00.226Z,25.30
2022-11-24T19:56:29.696Z,26.57
2022-11-24T19:58:57.557Z,27.37
2022-11-24T20:01:26.134Z,23.33
2022-11-24T20:03:59.318Z,18.77
2022-11-24T20:06:28.799Z,21.60
2022-11-24T20:08:58.582Z,17.63
2022-11-24T20:11:26.272Z,20.63
2022-11-24T20:13:53.662Z,23.87
2022-11-24T20:16:26.492Z,26.23
2022-11-24T20:19:07.686Z,20.63
2022-11-24T20:21:36.306Z,19.53
2022-11-24T20:24:05.708Z,17.20
2022-11-24T20:26:36.002Z,22.17
2022-11-24T20:29:04.295Z,20.93
2022-11-24T20:31:37.470Z,20.83
2022-11-24T20:34:06.589Z,15.33
2022-11-24T20:36:36.382Z,17.10
2022-11-24T20:39:06.949Z,21.70
2022-11-24T20:41:35.745Z,21.27
2022-11-24T20:44:07.070Z,18.13
2022-11-24T20:46:36.442Z,18.47
2022-11-24T20:49:04.575Z,19.33
2022-11-24T20:51:34.025Z,17.80
2022-11-24T20:54:05.275Z,19.73
2022-11-24T20:56:36.660Z,15.73
2022-11-24T20:59:04.676Z,19.93
2022-11-24T21:01:38.327Z,21.03
2022-11-24T21:04:11.359Z,20.30
2022-11-24T21:06:39.224Z,20.87
2022-11-24T21:09:08.379Z,23.07
2022-11-24T21:11:36.716Z,15.73
2022-11-24T21:14:04.595Z,18.07
2022-11-24T21:16:34.283Z,21.47
2022-11-24T21:19:07.196Z,19.03
2022-11-24T21:21:36.591Z,19.27
2022-11-24T21:24:22.174Z,16.87
2022-11-24T21:26:51.651Z,15.93
2022-11-24T21:29:21.856Z,25.07
2022-11-24T21:31:49.190Z,19.33
2022-11-24T21:34:18.925Z,18.97
2022-11-24T21:36:46.429Z,18.00
2022-11-24T21:39:14.573Z,20.13
2022-11-24T21:41:42.631Z,13.50
2022-11-24T21:44:12.266Z,20.67
2022-11-24T21:46:45.007Z,19.83
2022-11-24T21:49:16.749Z,20.17
2022-11-24T21:51:43.968Z,19.20
2022-11-24T21:54:11.156Z,15.03
2022-11-24T21:56:38.293Z,18.17
2022-11-24T21:59:05.499Z,23.43
